sensor_id;sensor_type;location;lat;lon;timestamp;P1;durP1;ratioP1;P2;durP2;ratioP2
38811;SDS011;24553;51.640;-0.752;2022-12-20T00:02:17;5.22;;;0.82;;
38811;SDS011;24553;51.640;-0.752;2022-12-20T00:04:42;0.95;;;0.57;;
38811;SDS011;24553;51.640;-0.752;2022-12-20T00:07:08;5.55;;;1.65;;
38811;SDS011;24553;51.640;-0.752;2022-12-20T00:09:33;3.42;;;0.60;;
38811;SDS011;24553;51.640;-0.752;2022-12-20T00:11:58;1.08;;;0.20;;
38811;SDS011;24553;51.640;-0.752;2022-12-20T00:14:24;1.13;;;0.20;;
38811;SDS011;24553;51.640;-0.752;2022-12-20T00:16:49;6.10;;;1.23;;
38811;SDS011;24553;51.640;-0.752;2022-12-20T00:19:14;5.43;;;1.77;;
38811;SDS011;24553;51.640;-0.752;2022-12-20T00:21:40;4.07;;;0.52;;
38811;SDS011;24553;51.640;-0.752;2022-12-20T00:24:05;3.92;;;0.40;;
38811;SDS011;24553;51.640;-0.752;2022-12-20T00:26:32;0.77;;;0.30;;
38811;SDS011;24553;51.640;-0.752;2022-12-20T00:28:58;1.98;;;0.47;;
38811;SDS011;24553;51.640;-0.752;2022-12-20T00:31:25;4.45;;;0.35;;
38811;SDS011;24553;51.640;-0.752;2022-12-20T00:33:52;2.50;;;0.38;;
38811;SDS011;24553;51.640;-0.752;2022-12-20T00:36:19;6.22;;;1.48;;
38811;SDS011;24553;51.640;-0.752;2022-12-20T00:38:46;3.33;;;0.52;;
38811;SDS011;24553;51.640;-0.752;2022-12-20T00:41:17;0.88;;;0.20;;
38811;SDS011;24553;51.640;-0.752;2022-12-20T00:43:44;2.90;;;0.68;;
38811;SDS011;24553;51.640;-0.752;2022-12-20T00:46:10;1.85;;;0.20;;
38811;SDS011;24553;51.640;-0.752;2022-12-20T00:48:37;3.42;;;1.13;;
38811;SDS011;24553;51.640;-0.752;2022-12-20T00:51:06;1.65;;;0.50;;
38811;SDS011;24553;51.640;-0.752;2022-12-20T00:53:34;3.92;;;1.20;;
38811;SDS011;24553;51.640;-0.752;2022-12-20T00:56:00;2.30;;;1.15;;
38811;SDS011;24553;51.640;-0.752;2022-12-20T00:58:25;3.92;;;0.30;;
38811;SDS011;24553;51.640;-0.752;2022-12-20T01:00:51;2.22;;;0.20;;
38811;SDS011;24553;51.640;-0.752;2022-12-20T01:03:17;4.00;;;0.63;;
38811;SDS011;24553;51.640;-0.752;2022-12-20T01:05:52;0.47;;;0.10;;
38811;SDS011;24553;51.640;-0.752;2022-12-20T01:08:19;1.55;;;0.13;;
38811;SDS011;24553;51.640;-0.752;2022-12-20T01:10:46;3.95;;;0.20;;
38811;SDS011;24553;51.640;-0.752;2022-12-20T01:13:12;2.05;;;0.77;;
38811;SDS011;24553;51.640;-0.752;2022-12-20T01:15:37;4.10;;;0.80;;
38811;SDS011;24553;51.640;-0.752;2022-12-20T01:18:02;1.48;;;0.10;;
38811;SDS011;24553;51.640;-0.752;2022-12-20T01:20:28;1.67;;;1.55;;
38811;SDS011;24553;51.640;-0.752;2022-12-20T01:22:53;1.70;;;0.05;;
38811;SDS011;24553;51.640;-0.752;2022-12-20T01:25:18;5.40;;;0.82;;
38811;SDS011;24553;51.640;-0.752;2022-12-20T01:27:44;2.67;;;0.20;;
38811;SDS011;24553;51.640;-0.752;2022-12-20T01:30:10;5.47;;;0.30;;
38811;SDS011;24553;51.640;-0.752;2022-12-20T01:32:36;3.55;;;0.68;;
38811;SDS011;24553;51.640;-0.752;2022-12-20T01:35:01;1.90;;;0.20;;
38811;SDS011;24553;51.640;-0.752;2022-12-20T01:37:27;4.05;;;0.90;;
38811;SDS011;24553;51.640;-0.752;2022-12-20T01:39:52;7.03;;;0.63;;
38811;SDS011;24553;51.640;-0.752;2022-12-20T01:42:17;5.28;;;0.30;;
38811;SDS011;24553;51.640;-0.752;2022-12-20T01:47:08;5.15;;;0.30;;
38811;SDS011;24553;51.640;-0.752;2022-12-20T01:49:37;2.40;;;0.20;;
38811;SDS011;24553;51.640;-0.752;2022-12-20T01:52:11;2.00;;;0.13;;
38811;SDS011;24553;51.640;-0.752;2022-12-20T01:57:14;5.18;;;0.77;;
38811;SDS011;24553;51.640;-0.752;2022-12-20T01:59:45;5.03;;;1.38;;
38811;SDS011;24553;51.640;-0.752;2022-12-20T02:02:12;7.55;;;0.95;;
38811;SDS011;24553;51.640;-0.752;2022-12-20T02:04:38;2.47;;;0.55;;
38811;SDS011;24553;51.640;-0.752;2022-12-20T02:07:04;5.55;;;0.88;;
38811;SDS011;24553;51.640;-0.752;2022-12-20T02:09:31;4.80;;;1.27;;
38811;SDS011;24553;51.640;-0.752;2022-12-20T02:12:12;6.35;;;0.90;;
38811;SDS011;24553;51.640;-0.752;2022-12-20T02:20:57;1.75;;;0.70;;
38811;SDS011;24553;51.640;-0.752;2022-12-20T02:31:52;5.05;;;0.45;;
38811;SDS011;24553;51.640;-0.752;2022-12-20T02:34:25;8.10;;;0.82;;
38811;SDS011;24553;51.640;-0.752;2022-12-20T02:36:53;1.77;;;0.10;;
38811;SDS011;24553;51.640;-0.752;2022-12-20T02:39:18;3.35;;;0.47;;
38811;SDS011;24553;51.640;-0.752;2022-12-20T02:41:49;14.43;;;1.40;;
38811;SDS011;24553;51.640;-0.752;2022-12-20T02:44:18;2.97;;;1.58;;
38811;SDS011;24553;51.640;-0.752;2022-12-20T02:47:07;3.72;;;0.55;;
38811;SDS011;24553;51.640;-0.752;2022-12-20T02:49:37;6.55;;;1.08;;
38811;SDS011;24553;51.640;-0.752;2022-12-20T02:52:05;4.43;;;1.05;;
38811;SDS011;24553;51.640;-0.752;2022-12-20T02:54:33;7.25;;;0.52;;
38811;SDS011;24553;51.640;-0.752;2022-12-20T02:57:00;2.58;;;0.77;;
38811;SDS011;24553;51.640;-0.752;2022-12-20T02:59:44;8.07;;;0.77;;
38811;SDS011;24553;51.640;-0.752;2022-12-20T03:02:15;16.30;;;2.42;;
38811;SDS011;24553;51.640;-0.752;2022-12-20T03:04:41;4.47;;;1.15;;
38811;SDS011;24553;51.640;-0.752;2022-12-20T03:07:09;4.32;;;0.57;;
38811;SDS011;24553;51.640;-0.752;2022-12-20T03:09:40;1.90;;;0.60;;
38811;SDS011;24553;51.640;-0.752;2022-12-20T03:12:07;4.18;;;1.70;;
38811;SDS011;24553;51.640;-0.752;2022-12-20T03:14:33;6.20;;;1.23;;
38811;SDS011;24553;51.640;-0.752;2022-12-20T03:16:58;6.55;;;1.23;;
38811;SDS011;24553;51.640;-0.752;2022-12-20T03:19:24;5.07;;;1.60;;
38811;SDS011;24553;51.640;-0.752;2022-12-20T03:21:50;5.68;;;1.63;;
38811;SDS011;24553;51.640;-0.752;2022-12-20T03:24:15;5.25;;;1.20;;
38811;SDS011;24553;51.640;-0.752;2022-12-20T03:26:41;5.20;;;0.90;;
38811;SDS011;24553;51.640;-0.752;2022-12-20T03:29:07;4.28;;;0.88;;
38811;SDS011;24553;51.640;-0.752;2022-12-20T03:31:33;8.40;;;1.65;;
38811;SDS011;24553;51.640;-0.752;2022-12-20T03:33:59;2.70;;;0.30;;
38811;SDS011;24553;51.640;-0.752;2022-12-20T03:36:24;3.60;;;1.13;;
38811;SDS011;24553;51.640;-0.752;2022-12-20T03:38:50;2.85;;;1.25;;
38811;SDS011;24553;51.640;-0.752;2022-12-20T03:41:16;2.95;;;0.68;;
38811;SDS011;24553;51.640;-0.752;2022-12-20T03:43:42;5.20;;;2.58;;
38811;SDS011;24553;51.640;-0.752;2022-12-20T03:46:08;6.60;;;0.68;;
38811;SDS011;24553;51.640;-0.752;2022-12-20T03:48:33;3.17;;;0.90;;
38811;SDS011;24553;51.640;-0.752;2022-12-20T03:50:59;4.85;;;0.95;;
38811;SDS011;24553;51.640;-0.752;2022-12-20T03:53:24;8.10;;;0.32;;
38811;SDS011;24553;51.640;-0.752;2022-12-20T03:55:49;3.20;;;0.85;;
38811;SDS011;24553;51.640;-0.752;2022-12-20T03:58:15;2.75;;;0.40;;
38811;SDS011;24553;51.640;-0.752;2022-12-20T04:00:40;3.55;;;0.40;;
38811;SDS011;24553;51.640;-0.752;2022-12-20T04:03:06;3.03;;;0.57;;
38811;SDS011;24553;51.640;-0.752;2022-12-20T04:05:31;8.35;;;0.98;;
38811;SDS011;24553;51.640;-0.752;2022-12-20T04:07:57;2.22;;;0.50;;
38811;SDS011;24553;51.640;-0.752;2022-12-20T04:10:22;2.95;;;0.50;;
38811;SDS011;24553;51.640;-0.752;2022-12-20T04:12:47;3.75;;;0.85;;
38811;SDS011;24553;51.640;-0.752;2022-12-20T04:15:13;2.28;;;0.98;;
38811;SDS011;24553;51.640;-0.752;2022-12-20T04:17:38;5.10;;;0.52;;
38811;SDS011;24553;51.640;-0.752;2022-12-20T04:20:04;5.15;;;0.82;;
38811;SDS011;24553;51.640;-0.752;2022-12-20T04:22:49;3.30;;;0.47;;
38811;SDS011;24553;51.640;-0.752;2022-12-20T04:25:16;4.28;;;0.45;;
38811;SDS011;24553;51.640;-0.752;2022-12-20T04:27:43;6.53;;;0.38;;
38811;SDS011;24553;51.640;-0.752;2022-12-20T04:30:09;3.50;;;0.77;;
38811;SDS011;24553;51.640;-0.752;2022-12-20T04:32:36;5.05;;;0.40;;
38811;SDS011;24553;51.640;-0.752;2022-12-20T04:35:01;1.90;;;0.30;;
38811;SDS011;24553;51.640;-0.752;2022-12-20T04:37:28;2.55;;;0.50;;
38811;SDS011;24553;51.640;-0.752;2022-12-20T04:39:54;2.92;;;0.65;;
38811;SDS011;24553;51.640;-0.752;2022-12-20T04:42:20;3.28;;;0.30;;
38811;SDS011;24553;51.640;-0.752;2022-12-20T04:44:45;3.15;;;0.75;;
38811;SDS011;24553;51.640;-0.752;2022-12-20T04:47:11;0.98;;;0.55;;
38811;SDS011;24553;51.640;-0.752;2022-12-20T04:49:36;4.03;;;0.65;;
38811;SDS011;24553;51.640;-0.752;2022-12-20T04:52:01;2.70;;;0.38;;
38811;SDS011;24553;51.640;-0.752;2022-12-20T04:54:45;1.88;;;0.30;;
38811;SDS011;24553;51.640;-0.752;2022-12-20T04:57:11;2.88;;;0.63;;
38811;SDS011;24553;51.640;-0.752;2022-12-20T04:59:37;3.80;;;1.55;;
38811;SDS011;24553;51.640;-0.752;2022-12-20T05:02:02;3.22;;;0.20;;
38811;SDS011;24553;51.640;-0.752;2022-12-20T05:04:28;3.10;;;1.27;;
38811;SDS011;24553;51.640;-0.752;2022-12-20T05:06:53;3.65;;;0.93;;
38811;SDS011;24553;51.640;-0.752;2022-12-20T05:09:18;4.25;;;0.95;;
38811;SDS011;24553;51.640;-0.752;2022-12-20T05:11:43;1.30;;;0.20;;
38811;SDS011;24553;51.640;-0.752;2022-12-20T05:14:09;4.00;;;2.00;;
38811;SDS011;24553;51.640;-0.752;2022-12-20T05:16:34;2.20;;;0.52;;
38811;SDS011;24553;51.640;-0.752;2022-12-20T05:19:01;1.27;;;0.20;;
38811;SDS011;24553;51.640;-0.752;2022-12-20T05:21:28;5.10;;;0.68;;
38811;SDS011;24553;51.640;-0.752;2022-12-20T05:24:12;1.20;;;0.52;;
38811;SDS011;24553;51.640;-0.752;2022-12-20T05:26:56;2.50;;;0.28;;
38811;SDS011;24553;51.640;-0.752;2022-12-20T05:29:22;0.68;;;0.20;;
38811;SDS011;24553;51.640;-0.752;2022-12-20T05:31:47;2.38;;;0.00;;
38811;SDS011;24553;51.640;-0.752;2022-12-20T05:34:13;0.00;;;0.00;;
38811;SDS011;24553;51.640;-0.752;2022-12-20T05:36:38;0.00;;;0.00;;
38811;SDS011;24553;51.640;-0.752;2022-12-20T05:39:04;0.00;;;0.00;;
38811;SDS011;24553;51.640;-0.752;2022-12-20T05:41:30;0.00;;;0.00;;
38811;SDS011;24553;51.640;-0.752;2022-12-20T05:43:56;0.00;;;0.00;;
38811;SDS011;24553;51.640;-0.752;2022-12-20T05:46:21;0.00;;;0.00;;
38811;SDS011;24553;51.640;-0.752;2022-12-20T05:48:47;0.00;;;0.00;;
38811;SDS011;24553;51.640;-0.752;2022-12-20T05:51:12;0.00;;;0.00;;
38811;SDS011;24553;51.640;-0.752;2022-12-20T05:53:37;0.00;;;0.00;;
38811;SDS011;24553;51.640;-0.752;2022-12-20T05:56:03;1.75;;;0.00;;
38811;SDS011;24553;51.640;-0.752;2022-12-20T05:58:28;0.00;;;0.00;;
38811;SDS011;24553;51.640;-0.752;2022-12-20T06:00:54;0.00;;;0.00;;
38811;SDS011;24553;51.640;-0.752;2022-12-20T06:03:20;0.00;;;0.00;;
38811;SDS011;24553;51.640;-0.752;2022-12-20T06:05:46;0.00;;;0.00;;
38811;SDS011;24553;51.640;-0.752;2022-12-20T06:08:11;0.00;;;0.00;;
38811;SDS011;24553;51.640;-0.752;2022-12-20T06:10:38;0.00;;;0.00;;
38811;SDS011;24553;51.640;-0.752;2022-12-20T06:13:04;0.00;;;0.00;;
38811;SDS011;24553;51.640;-0.752;2022-12-20T06:15:30;0.00;;;0.00;;
38811;SDS011;24553;51.640;-0.752;2022-12-20T06:17:55;0.00;;;0.00;;
38811;SDS011;24553;51.640;-0.752;2022-12-20T06:20:21;0.00;;;0.00;;
38811;SDS011;24553;51.640;-0.752;2022-12-20T06:22:46;0.00;;;0.00;;
38811;SDS011;24553;51.640;-0.752;2022-12-20T06:25:12;0.00;;;0.00;;
38811;SDS011;24553;51.640;-0.752;2022-12-20T06:27:39;0.00;;;0.00;;
38811;SDS011;24553;51.640;-0.752;2022-12-20T06:30:05;0.00;;;0.00;;
38811;SDS011;24553;51.640;-0.752;2022-12-20T06:32:32;0.00;;;0.00;;
38811;SDS011;24553;51.640;-0.752;2022-12-20T06:34:57;0.00;;;0.00;;
38811;SDS011;24553;51.640;-0.752;2022-12-20T06:37:22;0.00;;;0.00;;
38811;SDS011;24553;51.640;-0.752;2022-12-20T06:39:48;0.00;;;0.00;;
38811;SDS011;24553;51.640;-0.752;2022-12-20T06:42:13;0.00;;;0.00;;
38811;SDS011;24553;51.640;-0.752;2022-12-20T06:44:38;0.00;;;0.00;;
38811;SDS011;24553;51.640;-0.752;2022-12-20T06:47:04;0.00;;;0.00;;
38811;SDS011;24553;51.640;-0.752;2022-12-20T06:49:29;0.45;;;0.30;;
38811;SDS011;24553;51.640;-0.752;2022-12-20T06:51:54;0.00;;;0.00;;
38811;SDS011;24553;51.640;-0.752;2022-12-20T06:54:20;0.40;;;0.00;;
38811;SDS011;24553;51.640;-0.752;2022-12-20T06:56:45;0.00;;;0.00;;
38811;SDS011;24553;51.640;-0.752;2022-12-20T06:59:11;0.00;;;0.00;;
38811;SDS011;24553;51.640;-0.752;2022-12-20T07:01:36;0.00;;;0.00;;
38811;SDS011;24553;51.640;-0.752;2022-12-20T07:04:01;1.75;;;0.00;;
38811;SDS011;24553;51.640;-0.752;2022-12-20T07:06:27;2.47;;;0.10;;
38811;SDS011;24553;51.640;-0.752;2022-12-20T07:08:53;0.08;;;0.00;;
38811;SDS011;24553;51.640;-0.752;2022-12-20T07:11:19;5.47;;;0.00;;
38811;SDS011;24553;51.640;-0.752;2022-12-20T07:13:44;0.10;;;0.00;;
38811;SDS011;24553;51.640;-0.752;2022-12-20T07:16:10;0.20;;;0.20;;
38811;SDS011;24553;51.640;-0.752;2022-12-20T07:18:35;0.00;;;0.00;;
38811;SDS011;24553;51.640;-0.752;2022-12-20T07:21:01;0.30;;;0.00;;
38811;SDS011;24553;51.640;-0.752;2022-12-20T07:23:28;1.30;;;0.00;;
38811;SDS011;24553;51.640;-0.752;2022-12-20T07:25:53;0.00;;;0.00;;
38811;SDS011;24553;51.640;-0.752;2022-12-20T07:28:23;0.60;;;0.00;;
38811;SDS011;24553;51.640;-0.752;2022-12-20T07:30:49;0.00;;;0.00;;
38811;SDS011;24553;51.640;-0.752;2022-12-20T07:33:14;0.10;;;0.00;;
38811;SDS011;24553;51.640;-0.752;2022-12-20T07:35:40;0.00;;;0.00;;
38811;SDS011;24553;51.640;-0.752;2022-12-20T07:38:05;0.30;;;0.00;;
38811;SDS011;24553;51.640;-0.752;2022-12-20T07:40:31;0.00;;;0.00;;
38811;SDS011;24553;51.640;-0.752;2022-12-20T07:42:56;1.23;;;0.20;;
38811;SDS011;24553;51.640;-0.752;2022-12-20T07:45:21;0.00;;;0.00;;
38811;SDS011;24553;51.640;-0.752;2022-12-20T07:47:47;0.00;;;0.00;;
38811;SDS011;24553;51.640;-0.752;2022-12-20T07:50:12;0.00;;;0.00;;
38811;SDS011;24553;51.640;-0.752;2022-12-20T07:52:38;0.00;;;0.00;;
38811;SDS011;24553;51.640;-0.752;2022-12-20T07:55:09;1.75;;;0.40;;
38811;SDS011;24553;51.640;-0.752;2022-12-20T07:57:40;1.00;;;0.77;;
38811;SDS011;24553;51.640;-0.752;2022-12-20T08:00:10;0.08;;;0.00;;
38811;SDS011;24553;51.640;-0.752;2022-12-20T08:02:38;1.45;;;0.05;;
38811;SDS011;24553;51.640;-0.752;2022-12-20T08:07:33;1.13;;;0.22;;
38811;SDS011;24553;51.640;-0.752;2022-12-20T08:10:01;1.35;;;0.00;;
38811;SDS011;24553;51.640;-0.752;2022-12-20T08:12:28;0.40;;;0.00;;
38811;SDS011;24553;51.640;-0.752;2022-12-20T08:14:55;2.05;;;0.45;;
38811;SDS011;24553;51.640;-0.752;2022-12-20T08:17:22;0.90;;;0.20;;
38811;SDS011;24553;51.640;-0.752;2022-12-20T08:19:47;0.00;;;0.00;;
38811;SDS011;24553;51.640;-0.752;2022-12-20T08:22:19;0.15;;;0.00;;
38811;SDS011;24553;51.640;-0.752;2022-12-20T08:24:44;5.00;;;0.10;;
38811;SDS011;24553;51.640;-0.752;2022-12-20T08:27:10;0.65;;;0.57;;
38811;SDS011;24553;51.640;-0.752;2022-12-20T08:29:35;1.65;;;0.10;;
38811;SDS011;24553;51.640;-0.752;2022-12-20T08:32:00;2.10;;;0.10;;
38811;SDS011;24553;51.640;-0.752;2022-12-20T08:34:26;0.30;;;0.13;;
38811;SDS011;24553;51.640;-0.752;2022-12-20T08:36:52;6.10;;;1.45;;
38811;SDS011;24553;51.640;-0.752;2022-12-20T08:39:17;1.42;;;0.95;;
38811;SDS011;24553;51.640;-0.752;2022-12-20T08:41:42;1.45;;;0.30;;
38811;SDS011;24553;51.640;-0.752;2022-12-20T08:44:08;2.65;;;0.10;;
38811;SDS011;24553;51.640;-0.752;2022-12-20T08:46:34;3.60;;;0.77;;
38811;SDS011;24553;51.640;-0.752;2022-12-20T08:49:01;0.38;;;0.10;;
38811;SDS011;24553;51.640;-0.752;2022-12-20T08:51:27;1.10;;;0.10;;
38811;SDS011;24553;51.640;-0.752;2022-12-20T08:53:53;3.65;;;0.25;;
38811;SDS011;24553;51.640;-0.752;2022-12-20T08:56:18;2.88;;;0.30;;
38811;SDS011;24553;51.640;-0.752;2022-12-20T08:58:44;4.70;;;0.20;;
38811;SDS011;24553;51.640;-0.752;2022-12-20T09:01:14;0.55;;;0.10;;
38811;SDS011;24553;51.640;-0.752;2022-12-20T09:03:41;2.63;;;0.73;;
38811;SDS011;24553;51.640;-0.752;2022-12-20T09:06:08;1.42;;;0.80;;
38811;SDS011;24553;51.640;-0.752;2022-12-20T09:08:35;2.28;;;0.65;;
38811;SDS011;24553;51.640;-0.752;2022-12-20T09:11:06;3.92;;;1.27;;
38811;SDS011;24553;51.640;-0.752;2022-12-20T09:13:53;2.58;;;0.85;;
38811;SDS011;24553;51.640;-0.752;2022-12-20T09:16:22;0.32;;;0.10;;
38811;SDS011;24553;51.640;-0.752;2022-12-20T09:18:54;0.30;;;0.30;;
38811;SDS011;24553;51.640;-0.752;2022-12-20T09:21:21;1.98;;;0.70;;
38811;SDS011;24553;51.640;-0.752;2022-12-20T09:23:51;0.93;;;0.50;;
38811;SDS011;24553;51.640;-0.752;2022-12-20T09:26:18;0.68;;;0.17;;
38811;SDS011;24553;51.640;-0.752;2022-12-20T09:28:44;1.23;;;0.10;;
38811;SDS011;24553;51.640;-0.752;2022-12-20T09:31:13;0.45;;;0.10;;
38811;SDS011;24553;51.640;-0.752;2022-12-20T09:33:41;1.85;;;0.10;;
38811;SDS011;24553;51.640;-0.752;2022-12-20T09:36:10;1.70;;;0.00;;
38811;SDS011;24553;51.640;-0.752;2022-12-20T09:38:37;11.02;;;0.70;;
38811;SDS011;24553;51.640;-0.752;2022-12-20T09:41:03;1.45;;;0.30;;
38811;SDS011;24553;51.640;-0.752;2022-12-20T09:43:31;2.92;;;1.25;;
38811;SDS011;24553;51.640;-0.752;2022-12-20T09:45:58;2.40;;;0.55;;
38811;SDS011;24553;51.640;-0.752;2022-12-20T09:48:29;1.85;;;0.95;;
38811;SDS011;24553;51.640;-0.752;2022-12-20T09:56:02;3.33;;;0.70;;
38811;SDS011;24553;51.640;-0.752;2022-12-20T10:01:30;1.17;;;0.32;;
38811;SDS011;24553;51.640;-0.752;2022-12-20T10:03:58;4.18;;;0.17;;
38811;SDS011;24553;51.640;-0.752;2022-12-20T10:08:59;3.10;;;0.67;;
38811;SDS011;24553;51.640;-0.752;2022-12-20T10:19:59;2.15;;;0.20;;
38811;SDS011;24553;51.640;-0.752;2022-12-20T10:22:32;1.73;;;0.30;;
38811;SDS011;24553;51.640;-0.752;2022-12-20T10:27:44;2.63;;;0.10;;
38811;SDS011;24553;51.640;-0.752;2022-12-20T10:30:15;4.35;;;1.40;;
38811;SDS011;24553;51.640;-0.752;2022-12-20T10:32:44;0.57;;;0.17;;
38811;SDS011;24553;51.640;-0.752;2022-12-20T10:37:45;1.42;;;0.68;;
38811;SDS011;24553;51.640;-0.752;2022-12-20T10:40:32;2.63;;;0.20;;
38811;SDS011;24553;51.640;-0.752;2022-12-20T10:43:00;4.68;;;0.95;;
38811;SDS011;24553;51.640;-0.752;2022-12-20T10:45:31;5.53;;;1.23;;
38811;SDS011;24553;51.640;-0.752;2022-12-20T10:48:00;3.35;;;1.10;;
38811;SDS011;24553;51.640;-0.752;2022-12-20T10:50:27;4.00;;;1.23;;
38811;SDS011;24553;51.640;-0.752;2022-12-20T10:53:26;2.65;;;0.50;;
38811;SDS011;24553;51.640;-0.752;2022-12-20T10:55:45;5.80;;;1.05;;
38811;SDS011;24553;51.640;-0.752;2022-12-20T10:58:15;2.13;;;0.85;;
38811;SDS011;24553;51.640;-0.752;2022-12-20T11:00:42;6.10;;;1.15;;
38811;SDS011;24553;51.640;-0.752;2022-12-20T11:03:14;8.32;;;0.65;;
38811;SDS011;24553;51.640;-0.752;2022-12-20T11:05:40;3.45;;;1.00;;
38811;SDS011;24553;51.640;-0.752;2022-12-20T11:08:16;2.45;;;0.22;;
38811;SDS011;24553;51.640;-0.752;2022-12-20T11:10:42;7.20;;;0.57;;
38811;SDS011;24553;51.640;-0.752;2022-12-20T11:13:17;12.98;;;2.30;;
38811;SDS011;24553;51.640;-0.752;2022-12-20T11:15:49;6.05;;;0.77;;
38811;SDS011;24553;51.640;-0.752;2022-12-20T11:18:19;6.45;;;1.25;;
38811;SDS011;24553;51.640;-0.752;2022-12-20T11:23:46;7.20;;;1.08;;
38811;SDS011;24553;51.640;-0.752;2022-12-20T11:34:38;6.40;;;3.00;;
38811;SDS011;24553;51.640;-0.752;2022-12-20T11:48:02;8.60;;;0.65;;
38811;SDS011;24553;51.640;-0.752;2022-12-20T11:50:42;11.50;;;1.58;;
38811;SDS011;24553;51.640;-0.752;2022-12-20T12:01:37;5.80;;;1.33;;
38811;SDS011;24553;51.640;-0.752;2022-12-20T12:04:10;4.95;;;0.57;;
38811;SDS011;24553;51.640;-0.752;2022-12-20T12:06:42;4.13;;;0.80;;
38811;SDS011;24553;51.640;-0.752;2022-12-20T12:12:08;9.07;;;0.60;;
38811;SDS011;24553;51.640;-0.752;2022-12-20T12:15:17;13.20;;;1.95;;
38811;SDS011;24553;51.640;-0.752;2022-12-20T12:20:34;8.43;;;2.13;;
38811;SDS011;24553;51.640;-0.752;2022-12-20T12:26:14;7.78;;;2.53;;
38811;SDS011;24553;51.640;-0.752;2022-12-20T12:28:45;2.13;;;1.00;;
38811;SDS011;24553;51.640;-0.752;2022-12-20T12:31:17;7.38;;;1.83;;
38811;SDS011;24553;51.640;-0.752;2022-12-20T12:37:02;2.97;;;1.25;;
38811;SDS011;24553;51.640;-0.752;2022-12-20T12:47:51;5.28;;;1.92;;
38811;SDS011;24553;51.640;-0.752;2022-12-20T12:50:20;9.90;;;3.58;;
38811;SDS011;24553;51.640;-0.752;2022-12-20T12:52:54;9.73;;;0.82;;
38811;SDS011;24553;51.640;-0.752;2022-12-20T12:58:12;9.32;;;1.60;;
38811;SDS011;24553;51.640;-0.752;2022-12-20T13:08:48;5.85;;;1.73;;
38811;SDS011;24553;51.640;-0.752;2022-12-20T13:11:37;13.73;;;3.35;;
38811;SDS011;24553;51.640;-0.752;2022-12-20T13:16:41;14.95;;;2.25;;
38811;SDS011;24553;51.640;-0.752;2022-12-20T13:19:14;4.63;;;1.25;;
38811;SDS011;24553;51.640;-0.752;2022-12-20T13:21:41;11.07;;;2.15;;
38811;SDS011;24553;51.640;-0.752;2022-12-20T13:45:44;10.65;;;0.85;;
38811;SDS011;24553;51.640;-0.752;2022-12-20T13:48:14;8.98;;;2.40;;
38811;SDS011;24553;51.640;-0.752;2022-12-20T13:50:47;10.20;;;3.50;;
38811;SDS011;24553;51.640;-0.752;2022-12-20T13:53:26;8.10;;;1.42;;
38811;SDS011;24553;51.640;-0.752;2022-12-20T13:55:52;12.18;;;2.05;;
38811;SDS011;24553;51.640;-0.752;2022-12-20T13:58:23;11.73;;;2.05;;
38811;SDS011;24553;51.640;-0.752;2022-12-20T14:00:50;11.82;;;1.77;;
38811;SDS011;24553;51.640;-0.752;2022-12-20T14:03:27;5.13;;;1.00;;
38811;SDS011;24553;51.640;-0.752;2022-12-20T14:05:55;10.90;;;2.92;;
38811;SDS011;24553;51.640;-0.752;2022-12-20T14:08:24;6.45;;;1.08;;
38811;SDS011;24553;51.640;-0.752;2022-12-20T14:11:18;5.40;;;2.53;;
38811;SDS011;24553;51.640;-0.752;2022-12-20T14:13:51;12.20;;;2.28;;
38811;SDS011;24553;51.640;-0.752;2022-12-20T14:16:31;14.70;;;3.03;;
38811;SDS011;24553;51.640;-0.752;2022-12-20T14:19:10;13.15;;;2.17;;
38811;SDS011;24553;51.640;-0.752;2022-12-20T14:21:39;8.60;;;1.63;;
38811;SDS011;24553;51.640;-0.752;2022-12-20T14:24:11;8.68;;;1.35;;
38811;SDS011;24553;51.640;-0.752;2022-12-20T14:26:41;5.38;;;1.48;;
38811;SDS011;24553;51.640;-0.752;2022-12-20T14:29:09;12.23;;;1.25;;
38811;SDS011;24553;51.640;-0.752;2022-12-20T14:31:37;9.65;;;1.92;;
38811;SDS011;24553;51.640;-0.752;2022-12-20T14:34:10;9.32;;;1.35;;
38811;SDS011;24553;51.640;-0.752;2022-12-20T14:36:40;10.80;;;2.53;;
38811;SDS011;24553;51.640;-0.752;2022-12-20T14:39:28;12.38;;;1.85;;
38811;SDS011;24553;51.640;-0.752;2022-12-20T14:44:36;9.77;;;1.88;;
38811;SDS011;24553;51.640;-0.752;2022-12-20T14:47:18;11.40;;;2.97;;
38811;SDS011;24553;51.640;-0.752;2022-12-20T14:49:50;7.18;;;1.88;;
38811;SDS011;24553;51.640;-0.752;2022-12-20T15:00:01;6.45;;;2.05;;
38811;SDS011;24553;51.640;-0.752;2022-12-20T15:05:06;8.30;;;1.30;;
38811;SDS011;24553;51.640;-0.752;2022-12-20T15:07:32;8.73;;;1.33;;
38811;SDS011;24553;51.640;-0.752;2022-12-20T15:09:58;9.88;;;1.85;;
38811;SDS011;24553;51.640;-0.752;2022-12-20T15:12:24;7.93;;;1.58;;
38811;SDS011;24553;51.640;-0.752;2022-12-20T15:14:49;19.02;;;3.03;;
38811;SDS011;24553;51.640;-0.752;2022-12-20T15:17:14;4.78;;;0.82;;
38811;SDS011;24553;51.640;-0.752;2022-12-20T15:19:40;15.00;;;2.45;;
38811;SDS011;24553;51.640;-0.752;2022-12-20T15:22:12;7.65;;;1.20;;
38811;SDS011;24553;51.640;-0.752;2022-12-20T15:24:39;9.90;;;2.05;;
38811;SDS011;24553;51.640;-0.752;2022-12-20T15:27:05;7.75;;;2.38;;
38811;SDS011;24553;51.640;-0.752;2022-12-20T15:29:36;11.93;;;1.80;;
38811;SDS011;24553;51.640;-0.752;2022-12-20T15:34:37;28.58;;;6.50;;
38811;SDS011;24553;51.640;-0.752;2022-12-20T15:37:03;11.75;;;3.10;;
38811;SDS011;24553;51.640;-0.752;2022-12-20T15:39:30;11.35;;;2.17;;
38811;SDS011;24553;51.640;-0.752;2022-12-20T15:41:57;7.40;;;2.42;;
38811;SDS011;24553;51.640;-0.752;2022-12-20T15:44:26;14.77;;;4.90;;
38811;SDS011;24553;51.640;-0.752;2022-12-20T15:46:53;15.73;;;4.78;;
38811;SDS011;24553;51.640;-0.752;2022-12-20T15:49:23;24.83;;;9.90;;
38811;SDS011;24553;51.640;-0.752;2022-12-20T15:51:55;28.88;;;11.70;;
38811;SDS011;24553;51.640;-0.752;2022-12-20T15:54:31;23.13;;;10.13;;
38811;SDS011;24553;51.640;-0.752;2022-12-20T15:56:59;30.52;;;10.35;;
38811;SDS011;24553;51.640;-0.752;2022-12-20T15:59:27;45.42;;;19.35;;
38811;SDS011;24553;51.640;-0.752;2022-12-20T16:01:53;47.58;;;18.38;;
38811;SDS011;24553;51.640;-0.752;2022-12-20T16:04:19;37.40;;;13.18;;
38811;SDS011;24553;51.640;-0.752;2022-12-20T16:06:46;20.55;;;8.43;;
38811;SDS011;24553;51.640;-0.752;2022-12-20T16:09:14;21.48;;;7.80;;
38811;SDS011;24553;51.640;-0.752;2022-12-20T16:11:40;26.92;;;9.18;;
38811;SDS011;24553;51.640;-0.752;2022-12-20T16:14:09;14.75;;;6.50;;
38811;SDS011;24553;51.640;-0.752;2022-12-20T16:16:39;24.33;;;8.05;;
38811;SDS011;24553;51.640;-0.752;2022-12-20T16:19:04;23.45;;;8.98;;
38811;SDS011;24553;51.640;-0.752;2022-12-20T16:21:30;8.52;;;4.75;;
38811;SDS011;24553;51.640;-0.752;2022-12-20T16:24:00;10.90;;;4.75;;
38811;SDS011;24553;51.640;-0.752;2022-12-20T16:26:26;14.50;;;3.50;;
38811;SDS011;24553;51.640;-0.752;2022-12-20T16:28:53;5.63;;;1.92;;
38811;SDS011;24553;51.640;-0.752;2022-12-20T16:31:33;13.13;;;3.40;;
38811;SDS011;24553;51.640;-0.752;2022-12-20T16:34:03;10.75;;;2.65;;
38811;SDS011;24553;51.640;-0.752;2022-12-20T16:36:31;7.82;;;1.92;;
38811;SDS011;24553;51.640;-0.752;2022-12-20T16:38:57;14.20;;;3.75;;
38811;SDS011;24553;51.640;-0.752;2022-12-20T16:41:24;7.50;;;2.17;;
38811;SDS011;24553;51.640;-0.752;2022-12-20T16:43:52;5.80;;;1.73;;
38811;SDS011;24553;51.640;-0.752;2022-12-20T16:46:19;4.53;;;1.58;;
38811;SDS011;24553;51.640;-0.752;2022-12-20T16:48:46;7.85;;;2.60;;
38811;SDS011;24553;51.640;-0.752;2022-12-20T16:53:59;7.07;;;1.95;;
38811;SDS011;24553;51.640;-0.752;2022-12-20T16:56:26;14.18;;;1.52;;
38811;SDS011;24553;51.640;-0.752;2022-12-20T16:58:52;10.50;;;1.77;;
38811;SDS011;24553;51.640;-0.752;2022-12-20T17:01:18;3.75;;;1.55;;
38811;SDS011;24553;51.640;-0.752;2022-12-20T17:03:47;13.63;;;3.03;;
38811;SDS011;24553;51.640;-0.752;2022-12-20T17:06:13;6.85;;;1.48;;
38811;SDS011;24553;51.640;-0.752;2022-12-20T17:08:40;7.55;;;1.70;;
38811;SDS011;24553;51.640;-0.752;2022-12-20T17:11:13;4.85;;;2.40;;